Time;durP1;ratioP1;P1;durP2;ratioP2;P2;SDS_P1;SDS_P2;PMS_P1;PMS_P2;Temp;Humidity;BMP_temperature;BMP_pressure;BME280_temperature;BME280_humidity;BME280_pressure;Samples;Min_cycle;Max_cycle;Signal;HPM_P1;HPM_P2
2022/12/22 03:27:33;;;;;;;15.60;10.00;;;28.20;99.90;;;;;;5035900;28;20028;-73
2022/12/22 03:29:59;;;;;;;19.92;11.13;;;28.30;99.90;;;;;;5035755;28;20041;-71
2022/12/22 03:32:26;;;;;;;20.05;10.77;;;28.30;99.90;;;;;;5040612;28;20029;-73
2022/12/22 03:34:52;;;;;;;17.88;10.60;;;28.30;99.90;;;;;;5040690;28;20052;-72
2022/12/22 03:37:19;;;;;;;18.15;11.65;;;28.30;99.90;;;;;;5035580;28;20459;-75
2022/12/22 03:39:45;;;;;;;15.73;11.80;;;28.30;99.90;;;;;;5035725;28;20439;-74
2022/12/22 03:47:41;;;;;;;22.58;12.45;;;28.40;99.90;;;;;;5035556;28;20056;-74
2022/12/22 03:50:07;;;;;;;19.70;12.35;;;28.40;99.90;;;;;;5035258;28;20018;-72
2022/12/22 03:52:34;;;;;;;21.88;11.57;;;28.40;99.90;;;;;;5035451;28;20109;-71
2022/12/22 03:55:00;;;;;;;18.75;11.77;;;28.50;99.90;;;;;;5035543;28;20048;-71
2022/12/22 03:57:27;;;;;;;19.17;10.82;;;28.60;99.90;;;;;;5035261;28;20104;-71
2022/12/22 03:59:53;;;;;;;17.20;10.63;;;28.60;99.90;;;;;;5017622;28;20531;-72
2022/12/22 04:02:20;;;;;;;18.48;11.55;;;28.60;99.90;;;;;;5035297;28;20025;-73
2022/12/22 04:04:47;;;;;;;20.08;12.95;;;28.60;99.90;;;;;;5046349;28;20097;-73
2022/12/22 04:07:13;;;;;;;38.85;16.77;;;28.60;99.90;;;;;;5035276;28;20030;-72
2022/12/22 04:12:53;;;;;;;22.38;12.88;;;28.70;99.90;;;;;;5035219;28;20025;-73
2022/12/22 04:15:10;;;;;;;20.50;11.43;;;28.80;99.90;;;;;;5038085;28;20024;-76
2022/12/22 04:17:37;;;;;;;15.65;10.35;;;28.80;99.90;;;;;;5054878;28;20021;-75
2022/12/22 04:20:04;;;;;;;14.75;9.43;;;28.80;99.90;;;;;;5054932;28;20021;-74
2022/12/22 04:22:30;;;;;;;13.25;8.63;;;28.80;99.90;;;;;;5054733;28;20017;-74
2022/12/22 04:24:56;;;;;;;16.13;9.25;;;28.90;99.90;;;;;;5054592;28;20506;-75
2022/12/22 04:27:23;;;;;;;18.27;10.52;;;29.00;99.90;;;;;;5054776;28;20036;-73
2022/12/22 04:29:49;;;;;;;15.35;8.75;;;29.00;99.90;;;;;;5054842;28;20512;-74
2022/12/22 04:32:16;;;;;;;14.68;9.20;;;29.10;99.90;;;;;;5054472;28;20034;-75
2022/12/22 04:34:42;;;;;;;14.85;8.15;;;29.20;99.90;;;;;;5054701;28;20103;-72
2022/12/22 04:37:09;;;;;;;15.98;9.00;;;29.30;99.90;;;;;;5054640;28;20021;-72
2022/12/22 04:39:35;;;;;;;19.20;9.38;;;29.30;99.90;;;;;;5054386;28;20021;-71
2022/12/22 04:42:02;;;;;;;14.98;8.88;;;29.40;99.90;;;;;;5054489;28;20029;-73
2022/12/22 04:44:28;;;;;;;14.25;8.77;;;29.40;99.90;;;;;;5054249;28;20017;-73
2022/12/22 04:46:55;;;;;;;16.48;10.15;;;29.40;99.90;;;;;;5054206;28;20021;-72
2022/12/22 04:49:21;;;;;;;16.95;9.15;;;29.50;99.90;;;;;;5054359;28;20047;-71
2022/12/22 04:51:48;;;;;;;16.50;7.63;;;29.50;99.90;;;;;;5054349;28;20025;-72
2022/12/22 04:54:14;;;;;;;12.85;8.10;;;29.60;99.90;;;;;;5054020;28;20025;-75
2022/12/22 04:56:41;;;;;;;19.85;9.60;;;29.60;99.90;;;;;;5054214;28;20044;-76
2022/12/22 04:59:07;;;;;;;16.00;9.75;;;29.70;99.90;;;;;;5053999;28;20067;-77
2022/12/22 05:01:34;;;;;;;11.63;7.35;;;29.70;99.90;;;;;;5053912;28;20021;-67
2022/12/22 05:04:00;;;;;;;9.93;7.28;;;29.80;99.90;;;;;;5054279;28;20025;-64
2022/12/22 05:06:27;;;;;;;14.60;7.75;;;29.80;99.90;;;;;;5053971;28;20025;-65
2022/12/22 05:08:53;;;;;;;12.65;7.25;;;29.80;99.90;;;;;;5053744;28;20029;-65
2022/12/22 05:11:20;;;;;;;13.73;6.60;;;29.90;99.90;;;;;;5053775;28;20025;-65
2022/12/22 05:13:46;;;;;;;13.00;7.53;;;29.90;99.90;;;;;;5050935;28;20025;-64
2022/12/22 05:16:15;;;;;;;13.02;6.38;;;30.00;99.90;;;;;;5044584;28;20018;-63
2022/12/22 05:18:43;;;;;;;15.57;7.15;;;30.00;99.90;;;;;;5033951;28;20369;-65
2022/12/22 05:21:15;;;;;;;15.82;7.35;;;30.20;99.90;;;;;;5033858;28;20100;-63
2022/12/22 05:23:42;;;;;;;11.52;6.10;;;30.20;99.90;;;;;;5033687;28;20478;-72
2022/12/22 05:26:10;;;;;;;11.20;6.07;;;30.20;99.90;;;;;;5033752;28;20033;-72
2022/12/22 05:28:37;;;;;;;8.32;5.97;;;30.20;99.90;;;;;;5033725;28;20017;-74
2022/12/22 05:31:09;;;;;;;8.15;6.70;;;30.20;99.90;;;;;;5033527;28;20025;-74
2022/12/22 05:33:36;;;;;;;10.25;5.90;;;30.10;99.90;;;;;;5033539;28;20036;-73
2022/12/22 05:36:02;;;;;;;13.98;6.72;;;30.10;99.90;;;;;;5033581;28;20013;-75
2022/12/22 05:38:29;;;;;;;11.15;6.93;;;30.20;99.90;;;;;;5045997;28;20032;-73
2022/12/22 05:40:55;;;;;;;11.15;6.60;;;30.20;99.90;;;;;;5049276;28;20017;-74
2022/12/22 05:43:22;;;;;;;7.32;5.68;;;30.20;99.90;;;;;;5051876;28;20013;-72
2022/12/22 05:45:49;;;;;;;14.20;6.57;;;30.20;99.90;;;;;;5051644;28;20036;-74
2022/12/22 05:48:15;;;;;;;10.77;7.25;;;30.20;99.90;;;;;;5052130;28;20446;-73
2022/12/22 05:50:42;;;;;;;12.18;6.75;;;30.20;99.90;;;;;;5051864;28;20104;-74
2022/12/22 05:53:08;;;;;;;10.77;6.80;;;30.20;99.90;;;;;;5051263;28;20452;-73
2022/12/22 05:55:35;;;;;;;15.70;6.22;;;30.20;99.90;;;;;;5050722;28;20025;-73
2022/12/22 05:58:01;;;;;;;13.18;7.45;;;30.20;99.90;;;;;;5051211;28;20075;-75
2022/12/22 06:00:30;;;;;;;11.57;6.60;;;30.30;99.90;;;;;;5051300;28;20025;-76
2022/12/22 06:02:57;;;;;;;15.15;7.03;;;30.30;99.90;;;;;;5048864;28;20370;-75
2022/12/22 06:05:24;;;;;;;13.40;6.18;;;30.30;99.90;;;;;;5051660;28;20091;-75
2022/12/22 06:07:50;;;;;;;19.33;6.60;;;30.30;99.90;;;;;;5051279;28;20025;-76
2022/12/22 06:10:17;;;;;;;10.50;6.53;;;30.30;99.90;;;;;;5051000;28;20036;-75
2022/12/22 06:12:43;;;;;;;10.43;6.40;;;30.40;99.90;;;;;;5051196;28;20056;-76
2022/12/22 06:15:12;;;;;;;11.02;6.82;;;30.50;99.90;;;;;;5051257;28;20021;-76
2022/12/22 06:17:39;;;;;;;19.05;7.30;;;30.50;99.90;;;;;;5051135;28;20024;-74
2022/12/22 06:20:06;;;;;;;11.60;6.82;;;30.60;99.90;;;;;;5051310;28;20470;-75
2022/12/22 06:22:33;;;;;;;14.07;8.05;;;30.60;99.90;;;;;;5051203;28;20036;-76
2022/12/22 06:25:00;;;;;;;14.88;9.20;;;30.60;99.90;;;;;;5051321;28;20025;-75
2022/12/22 06:27:27;;;;;;;15.90;8.13;;;30.60;99.90;;;;;;5051420;28;20465;-76
2022/12/22 06:29:53;;;;;;;14.77;8.90;;;30.50;99.90;;;;;;5051381;28;20017;-76
2022/12/22 06:32:20;;;;;;;19.70;12.15;;;30.50;99.90;;;;;;5049617;28;20132;-71
2022/12/22 06:34:47;;;;;;;18.30;10.95;;;30.60;99.90;;;;;;5051988;28;20017;-71
2022/12/22 06:37:13;;;;;;;16.55;8.70;;;30.60;99.90;;;;;;5051481;28;20013;-76
2022/12/22 06:39:40;;;;;;;11.13;7.13;;;30.60;99.90;;;;;;5052289;28;20451;-75
2022/12/22 06:44:53;;;;;;;14.68;7.55;;;30.70;99.90;;;;;;5051891;28;20075;-74
2022/12/22 06:47:20;;;;;;;13.48;7.63;;;30.80;99.90;;;;;;5052040;28;20044;-75
2022/12/22 06:49:46;;;;;;;18.23;10.45;;;30.80;99.90;;;;;;5051959;28;20129;-74
2022/12/22 06:52:13;;;;;;;15.77;7.72;;;30.90;99.90;;;;;;5048691;28;20020;-74
2022/12/22 06:54:39;;;;;;;17.05;7.82;;;30.80;99.90;;;;;;5052078;28;20021;-74
2022/12/22 06:57:06;;;;;;;13.95;8.10;;;30.90;99.90;;;;;;5051929;28;20470;-75
2022/12/22 06:59:32;;;;;;;13.90;7.90;;;31.00;99.90;;;;;;5049017;28;20110;-73
2022/12/22 07:01:59;;;;;;;14.13;9.20;;;31.00;99.90;;;;;;5051820;28;20028;-75
2022/12/22 07:04:25;;;;;;;12.95;7.78;;;31.10;99.90;;;;;;5051690;28;20094;-75
2022/12/22 07:06:52;;;;;;;18.27;9.68;;;31.20;99.90;;;;;;5051681;28;20017;-76
2022/12/22 07:09:18;;;;;;;12.88;8.48;;;31.20;99.90;;;;;;5054786;28;20017;-72
2022/12/22 07:11:45;;;;;;;19.60;8.13;;;31.20;99.90;;;;;;5055578;28;20048;-70
2022/12/22 07:14:11;;;;;;;11.15;7.60;;;31.20;99.90;;;;;;5054915;28;20028;-69
2022/12/22 07:16:38;;;;;;;16.15;9.95;;;31.00;99.90;;;;;;5055553;28;20013;-69
2022/12/22 07:19:04;;;;;;;16.52;10.38;;;31.00;99.90;;;;;;5055297;28;20024;-70
2022/12/22 07:21:31;;;;;;;15.05;9.43;;;31.00;99.90;;;;;;5055680;28;20029;-74
2022/12/22 07:23:57;;;;;;;14.05;9.60;;;31.00;99.90;;;;;;5055879;28;20025;-74
2022/12/22 07:26:24;;;;;;;11.52;8.48;;;31.10;99.90;;;;;;5055971;28;20025;-74
2022/12/22 07:28:50;;;;;;;17.02;8.02;;;31.10;99.90;;;;;;5055761;28;20104;-75
2022/12/22 07:31:19;;;;;;;11.75;8.10;;;31.20;99.90;;;;;;5055807;28;20265;-74
2022/12/22 07:33:45;;;;;;;12.10;8.55;;;31.20;99.90;;;;;;5055668;28;20032;-76
2022/12/22 07:36:15;;;;;;;16.27;9.43;;;31.30;99.90;;;;;;5055704;28;20017;-74
2022/12/22 07:38:44;;;;;;;21.42;9.13;;;31.40;99.90;;;;;;5055694;28;20100;-75
2022/12/22 07:43:58;;;;;;;16.55;8.63;;;31.40;99.90;;;;;;5055868;28;20090;-75
2022/12/22 07:46:26;;;;;;;13.15;7.45;;;31.40;99.90;;;;;;5055472;28;20540;-75
2022/12/22 07:51:40;;;;;;;15.05;8.68;;;31.40;99.90;;;;;;5055422;28;20067;-74
2022/12/22 07:54:08;;;;;;;11.63;8.20;;;31.50;99.90;;;;;;5055170;28;20025;-75
2022/12/22 07:56:35;;;;;;;10.40;8.15;;;31.50;99.90;;;;;;5055339;28;20052;-75
2022/12/22 07:59:01;;;;;;;14.18;8.25;;;31.50;99.90;;;;;;5054170;28;20079;-73
2022/12/22 08:01:28;;;;;;;13.50;8.32;;;31.60;99.90;;;;;;5046541;28;20018;-73
2022/12/22 08:03:54;;;;;;;13.35;8.73;;;31.70;99.90;;;;;;5035604;28;20462;-70
2022/12/22 08:06:21;;;;;;;16.10;8.93;;;31.60;99.90;;;;;;5035686;28;20032;-70
2022/12/22 08:08:47;;;;;;;13.40;7.93;;;31.70;99.90;;;;;;5034866;28;20029;-70
2022/12/22 08:11:14;;;;;;;18.85;8.60;;;31.70;99.90;;;;;;5035532;28;20112;-66
2022/12/22 08:13:42;;;;;;;12.82;8.23;;;31.70;99.90;;;;;;5035013;28;20034;-71
2022/12/22 08:16:10;;;;;;;9.40;7.57;;;31.70;99.90;;;;;;5035059;28;20022;-72
2022/12/22 08:18:38;;;;;;;19.52;10.30;;;31.70;99.90;;;;;;5034306;28;20113;-70
2022/12/22 08:21:05;;;;;;;16.70;10.50;;;31.60;99.90;;;;;;5035053;28;20029;-71
2022/12/22 08:23:32;;;;;;;12.68;8.05;;;31.60;99.90;;;;;;5035839;28;20052;-71
2022/12/22 08:26:17;;;;;;;11.77;8.02;;;31.60;99.90;;;;;;5035286;28;20386;-75
2022/12/22 08:28:52;;;;;;;18.05;9.35;;;31.50;99.90;;;;;;5034919;28;20026;-77
2022/12/22 08:31:21;;;;;;;16.17;9.00;;;31.50;99.90;;;;;;5034848;28;20382;-79
2022/12/22 08:33:48;;;;;;;13.50;9.23;;;31.50;99.90;;;;;;5016919;28;20026;-76
2022/12/22 08:36:15;;;;;;;17.00;8.88;;;31.50;99.90;;;;;;5034746;28;20025;-77
2022/12/22 08:38:43;;;;;;;15.27;8.35;;;31.50;99.90;;;;;;5046202;28;20021;-75
2022/12/22 08:41:13;;;;;;;12.75;7.90;;;31.50;99.90;;;;;;5034870;28;20021;-77
2022/12/22 08:43:39;;;;;;;14.07;9.02;;;31.60;99.90;;;;;;5034989;28;20053;-72
2022/12/22 08:46:06;;;;;;;18.00;9.68;;;31.60;99.90;;;;;;5034896;28;20026;-71
2022/12/22 08:48:32;;;;;;;17.92;9.38;;;31.70;99.90;;;;;;5035058;28;20109;-70
2022/12/22 08:50:59;;;;;;;28.42;8.32;;;31.70;99.90;;;;;;5033881;28;20034;-70
2022/12/22 08:53:25;;;;;;;19.45;10.65;;;31.60;99.90;;;;;;5034336;28;20088;-70
2022/12/22 08:55:53;;;;;;;20.13;9.15;;;31.60;99.90;;;;;;5034347;28;20029;-70
2022/12/22 08:58:21;;;;;;;18.17;10.38;;;31.50;99.90;;;;;;5033791;28;20525;-71
2022/12/22 09:00:47;;;;;;;15.52;9.90;;;31.50;99.90;;;;;;5034321;28;20031;-72
2022/12/22 09:03:14;;;;;;;20.05;12.40;;;31.60;99.90;;;;;;5034150;28;20096;-71
2022/12/22 09:05:41;;;;;;;19.58;10.45;;;31.70;99.90;;;;;;5034449;28;20017;-73
2022/12/22 09:08:08;;;;;;;19.45;10.05;;;31.60;99.90;;;;;;5033735;28;20037;-73
2022/12/22 09:10:35;;;;;;;16.45;9.68;;;31.60;99.90;;;;;;5043268;28;20029;-72
2022/12/22 09:13:01;;;;;;;15.20;9.20;;;31.50;99.90;;;;;;5035827;28;20422;-72
2022/12/22 09:15:27;;;;;;;14.75;9.65;;;31.50;99.90;;;;;;5034021;28;20431;-71
2022/12/22 09:17:54;;;;;;;18.52;11.15;;;31.50;99.90;;;;;;5033877;28;20017;-73
2022/12/22 09:20:20;;;;;;;18.40;10.15;;;31.50;99.90;;;;;;5034499;28;20033;-73
2022/12/22 09:22:47;;;;;;;15.75;10.68;;;31.50;99.90;;;;;;5033899;28;20542;-69
2022/12/22 09:25:16;;;;;;;19.08;11.32;;;31.50;99.90;;;;;;5034049;28;20501;-70
2022/12/22 09:27:42;;;;;;;18.13;10.60;;;31.50;99.90;;;;;;5033876;28;20025;-71
2022/12/22 09:30:09;;;;;;;23.02;12.80;;;31.50;99.90;;;;;;5032922;28;20021;-71
2022/12/22 09:32:36;;;;;;;17.33;11.70;;;31.50;99.90;;;;;;5033688;28;20063;-71
2022/12/22 09:35:03;;;;;;;19.73;10.07;;;31.40;99.90;;;;;;5033843;28;20022;-70
2022/12/22 09:37:29;;;;;;;14.25;10.25;;;31.40;99.90;;;;;;5039865;28;20028;-72
2022/12/22 09:39:56;;;;;;;24.67;13.93;;;31.40;99.90;;;;;;5051838;28;20017;-70
2022/12/22 09:42:23;;;;;;;23.58;12.57;;;31.40;99.90;;;;;;5051775;28;20541;-74
2022/12/22 09:44:51;;;;;;;51.83;19.42;;;31.40;99.90;;;;;;5051300;28;20381;-77
2022/12/22 09:47:39;;;;;;;25.65;18.25;;;31.40;99.90;;;;;;5051345;28;20424;-77
2022/12/22 09:50:10;;;;;;;22.08;12.18;;;31.30;99.90;;;;;;5051044;28;20048;-77
2022/12/22 09:52:37;;;;;;;21.85;13.30;;;31.30;99.90;;;;;;5051487;28;20548;-73
2022/12/22 09:55:31;;;;;;;21.83;14.30;;;31.30;99.90;;;;;;5051795;28;20478;-72
2022/12/22 09:57:57;;;;;;;18.40;12.23;;;31.20;99.90;;;;;;5052028;28;20040;-73
2022/12/22 10:00:26;;;;;;;17.48;11.25;;;31.20;99.90;;;;;;5052959;28;20029;-72
2022/12/22 10:03:10;;;;;;;22.58;14.15;;;31.20;99.90;;;;;;5053176;28;20122;-72
2022/12/22 10:05:42;;;;;;;23.27;14.15;;;31.20;99.90;;;;;;5053082;28;20048;-71
2022/12/22 10:08:24;;;;;;;29.38;16.55;;;31.10;99.90;;;;;;5053182;28;20021;-73
2022/12/22 10:10:55;;;;;;;28.75;18.08;;;31.10;99.90;;;;;;5053059;28;20036;-74
2022/12/22 10:13:21;;;;;;;26.38;15.10;;;31.00;99.90;;;;;;5052913;28;20033;-76
2022/12/22 10:15:48;;;;;;;26.33;17.33;;;31.00;99.90;;;;;;5053025;28;20021;-76
2022/12/22 10:18:16;;;;;;;19.05;11.52;;;31.00;99.90;;;;;;5052945;28;20025;-75
2022/12/22 10:21:05;;;;;;;20.05;12.07;;;30.90;99.90;;;;;;5052845;28;20025;-75
2022/12/22 10:23:34;;;;;;;26.95;13.20;;;30.90;99.90;;;;;;5052549;28;20032;-74
2022/12/22 10:26:25;;;;;;;31.42;19.60;;;30.80;99.90;;;;;;5052639;28;20061;-75
2022/12/22 10:29:13;;;;;;;26.92;14.43;;;30.80;99.90;;;;;;5052304;28;20037;-74
2022/12/22 10:32:13;;;;;;;21.90;13.88;;;30.70;99.90;;;;;;5052773;28;20029;-77
2022/12/22 10:34:58;;;;;;;28.65;14.82;;;30.70;99.90;;;;;;5052764;28;20040;-74
2022/12/22 10:37:39;;;;;;;32.53;18.95;;;30.60;99.90;;;;;;5052644;28;20025;-74
2022/12/22 10:40:21;;;;;;;30.83;17.80;;;30.70;99.90;;;;;;5052905;28;20028;-73
2022/12/22 10:42:50;;;;;;;;;;;30.70;99.90;;;;;;5056482;28;20063;-73
2022/12/22 10:45:25;;;;;;;46.95;24.08;;;30.60;99.90;;;;;;5056717;28;20417;-73
2022/12/22 10:47:54;;;;;;;39.75;23.48;;;30.60;99.90;;;;;;5056447;28;20064;-74
2022/12/22 10:50:22;;;;;;;53.35;28.05;;;30.60;99.90;;;;;;5056671;28;20032;-71
2022/12/22 10:52:56;;;;;;;86.43;54.85;;;30.50;99.90;;;;;;5056451;28;20028;-72
2022/12/22 10:55:28;;;;;;;121.90;74.78;;;30.50;99.90;;;;;;5056432;28;20021;-72
2022/12/22 10:58:10;;;;;;;95.70;59.15;;;30.50;99.90;;;;;;5056658;28;20519;-73
2022/12/22 11:00:37;;;;;;;76.35;43.15;;;30.40;99.90;;;;;;5056810;28;20021;-72
2022/12/22 11:03:10;;;;;;;88.50;50.20;;;30.40;99.90;;;;;;5056891;28;20135;-69
2022/12/22 11:05:37;;;;;;;67.70;38.42;;;30.40;99.90;;;;;;5056823;28;20021;-71
2022/12/22 11:08:17;;;;;;;74.07;42.75;;;30.30;99.90;;;;;;5056687;28;20032;-69
2022/12/22 11:10:48;;;;;;;84.60;52.92;;;30.30;99.90;;;;;;5056678;28;20033;-70
2022/12/22 11:13:26;;;;;;;95.07;52.22;;;30.30;99.90;;;;;;5056111;28;20039;-70
2022/12/22 11:15:59;;;;;;;274.20;203.43;;;30.30;99.90;;;;;;5056442;28;20017;-70
2022/12/22 11:18:49;;;;;;;195.65;132.73;;;30.30;99.90;;;;;;5056054;28;20367;-70
2022/12/22 11:21:29;;;;;;;68.88;45.28;;;30.20;99.90;;;;;;5056728;28;20013;-68
2022/12/22 11:24:34;;;;;;;61.97;31.25;;;30.20;99.90;;;;;;5056369;28;20029;-70
2022/12/22 11:27:19;;;;;;;59.88;32.40;;;30.20;99.90;;;;;;5056882;28;20032;-70
2022/12/22 11:30:07;;;;;;;52.22;28.60;;;30.20;99.90;;;;;;5056422;28;20025;-70
2022/12/22 11:32:55;;;;;;;57.05;29.85;;;30.20;99.90;;;;;;5056807;28;20029;-70
2022/12/22 11:35:29;;;;;;;54.30;30.15;;;30.20;99.90;;;;;;5056394;28;20458;-70
2022/12/22 11:38:10;;;;;;;55.45;27.98;;;30.00;99.90;;;;;;5056307;28;20017;-70
2022/12/22 11:40:40;;;;;;;63.33;32.90;;;30.10;99.90;;;;;;5056161;28;20067;-71
2022/12/22 11:43:24;;;;;;;49.08;27.63;;;30.10;99.90;;;;;;5056470;28;20033;-71
2022/12/22 11:45:50;;;;;;;53.63;29.17;;;30.10;99.90;;;;;;5056044;28;20017;-71
2022/12/22 11:48:48;;;;;;;70.03;34.05;;;30.10;99.90;;;;;;5056313;28;20029;-71
2022/12/22 11:51:47;;;;;;;55.28;27.15;;;30.10;99.90;;;;;;5048216;28;20170;-73
2022/12/22 11:54:32;;;;;;;72.32;34.92;;;30.10;99.90;;;;;;5051130;28;20033;-73
2022/12/22 11:57:17;;;;;;;73.25;33.90;;;30.10;99.90;;;;;;5048237;28;20033;-71
2022/12/22 11:59:53;;;;;;;43.55;24.60;;;30.10;99.90;;;;;;5035523;28;20128;-69
2022/12/22 12:02:36;;;;;;;40.08;22.38;;;30.00;99.90;;;;;;5053749;28;20397;-73
2022/12/22 12:05:25;;;;;;;42.50;21.23;;;29.90;99.90;;;;;;5045611;28;20017;-74
2022/12/22 12:08:05;;;;;;;49.10;23.05;;;29.90;99.90;;;;;;5035815;28;20024;-75
2022/12/22 12:10:43;;;;;;;39.28;21.88;;;29.80;99.90;;;;;;5035886;28;20068;-74
2022/12/22 12:13:23;;;;;;;38.45;20.00;;;29.80;99.90;;;;;;5047030;28;20037;-73
2022/12/22 12:16:07;;;;;;;42.95;22.30;;;29.80;99.90;;;;;;5055593;28;20053;-74
2022/12/22 12:18:56;;;;;;;40.05;21.33;;;29.80;99.90;;;;;;5055412;28;20013;-73
2022/12/22 12:21:49;;;;;;;33.78;17.80;;;29.80;99.90;;;;;;5055333;28;20101;-73
2022/12/22 12:24:15;;;;;;;35.38;20.80;;;29.80;99.90;;;;;;5051924;28;20057;-75
2022/12/22 12:27:02;;;;;;;24.08;13.95;;;29.60;99.90;;;;;;5048795;28;20025;-74
2022/12/22 12:29:42;;;;;;;31.02;13.10;;;29.60;99.90;;;;;;5037231;28;20064;-76
2022/12/22 12:32:27;;;;;;;27.98;13.80;;;29.60;99.90;;;;;;5035481;28;20030;-74
2022/12/22 12:35:06;;;;;;;31.98;14.82;;;29.50;99.90;;;;;;5017454;28;20025;-75
2022/12/22 12:37:38;;;;;;;29.63;13.75;;;29.60;99.90;;;;;;5035156;28;20026;-75
2022/12/22 12:40:26;;;;;;;32.93;14.87;;;29.50;99.90;;;;;;5035130;28;20018;-75
2022/12/22 12:42:54;;;;;;;30.60;13.35;;;29.50;99.90;;;;;;5035167;28;20017;-76
2022/12/22 12:45:38;;;;;;;25.65;13.10;;;29.40;99.90;;;;;;5044728;28;20081;-75
2022/12/22 12:48:34;;;;;;;26.60;13.43;;;29.40;99.90;;;;;;5074658;28;20040;-75
2022/12/22 12:51:00;;;;;;;25.13;13.02;;;29.40;99.90;;;;;;5058142;28;20116;-75
2022/12/22 12:53:29;;;;;;;28.60;15.90;;;29.40;99.90;;;;;;5075120;28;20028;-74
2022/12/22 12:55:58;;;;;;;28.17;14.77;;;29.40;99.90;;;;;;5075091;28;20032;-73
2022/12/22 12:58:47;;;;;;;26.08;14.90;;;29.30;99.90;;;;;;5074603;28;20063;-73
2022/12/22 13:01:26;;;;;;;37.08;15.77;;;29.30;99.90;;;;;;5060479;28;20025;-74
2022/12/22 13:03:53;;;;;;;29.77;13.77;;;29.30;99.90;;;;;;5055762;28;20036;-73
2022/12/22 13:06:44;;;;;;;39.83;18.02;;;29.40;99.90;;;;;;5055233;28;20033;-73
2022/12/22 13:09:19;;;;;;;22.33;13.35;;;29.40;99.90;;;;;;5074961;28;20032;-72
2022/12/22 13:11:47;;;;;;;24.17;11.90;;;29.30;99.90;;;;;;5058528;28;20045;-74
2022/12/22 13:14:51;;;;;;;24.05;11.38;;;29.30;99.90;;;;;;5053230;28;20029;-74
2022/12/22 13:17:33;;;;;;;23.33;10.95;;;29.20;99.90;;;;;;5050661;28;20031;-75
2022/12/22 13:20:00;;;;;;;22.27;10.57;;;29.10;99.90;;;;;;5051286;28;20265;-74
2022/12/22 13:22:26;;;;;;;19.80;10.13;;;29.00;99.90;;;;;;5053501;28;20029;-75
2022/12/22 13:24:54;;;;;;;18.10;10.10;;;29.00;99.90;;;;;;5051834;28;20037;-75
2022/12/22 13:27:22;;;;;;;21.00;8.68;;;29.00;99.90;;;;;;5053351;28;20017;-75
2022/12/22 13:29:50;;;;;;;23.45;10.50;;;29.00;99.90;;;;;;5053728;28;20477;-74
2022/12/22 13:32:26;;;;;;;21.17;9.60;;;28.90;99.90;;;;;;5053552;28;20174;-74
2022/12/22 13:35:11;;;;;;;17.52;9.15;;;28.90;99.90;;;;;;5052347;28;20151;-74
2022/12/22 13:37:44;;;;;;;29.52;9.88;;;28.90;99.90;;;;;;5052602;28;20097;-75
2022/12/22 13:40:14;;;;;;;22.73;10.38;;;29.00;99.90;;;;;;5051729;28;20017;-72
2022/12/22 13:42:42;;;;;;;19.25;10.40;;;28.90;99.90;;;;;;5053132;28;20064;-73
2022/12/22 13:45:21;;;;;;;19.50;8.88;;;29.00;99.90;;;;;;5053328;28;20025;-74
2022/12/22 13:47:48;;;;;;;16.23;9.23;;;29.00;99.90;;;;;;5051016;28;20123;-73
2022/12/22 13:50:46;;;;;;;17.80;8.23;;;28.90;99.90;;;;;;5053544;28;20070;-74
2022/12/22 13:53:24;;;;;;;20.80;9.48;;;28.90;99.90;;;;;;5049166;28;20393;-74
2022/12/22 13:55:51;;;;;;;21.23;9.80;;;29.00;99.90;;;;;;5049847;28;20080;-74
2022/12/22 13:58:33;;;;;;;19.77;9.23;;;29.00;99.90;;;;;;5052826;28;20048;-74
2022/12/22 14:01:02;;;;;;;18.35;10.75;;;29.00;99.90;;;;;;5051908;28;20070;-74
2022/12/22 14:03:29;;;;;;;23.75;11.40;;;28.90;99.90;;;;;;5052812;28;20098;-74
2022/12/22 14:05:55;;;;;;;33.03;13.65;;;28.80;99.90;;;;;;5050575;28;20081;-73
2022/12/22 14:08:23;;;;;;;22.40;12.52;;;28.80;99.90;;;;;;5053280;28;20071;-74
2022/12/22 14:10:52;;;;;;;25.17;13.85;;;28.80;99.90;;;;;;5053268;28;20033;-74
2022/12/22 14:13:26;;;;;;;25.65;14.15;;;28.80;99.90;;;;;;5050534;28;20039;-76
2022/12/22 14:16:06;;;;;;;28.75;13.63;;;28.80;99.90;;;;;;5052419;28;20017;-75
2022/12/22 14:18:33;;;;;;;24.00;14.85;;;28.70;99.90;;;;;;5053105;28;20017;-74
2022/12/22 14:21:00;;;;;;;22.63;14.88;;;28.70;99.90;;;;;;5052933;28;20506;-73
2022/12/22 14:23:31;;;;;;;22.80;15.63;;;28.70;99.90;;;;;;5053127;28;20021;-74
2022/12/22 14:26:00;;;;;;;36.55;17.40;;;28.70;99.90;;;;;;5050447;28;20052;-72
2022/12/22 14:28:37;;;;;;;30.45;15.88;;;28.70;99.90;;;;;;5052992;28;20355;-75
2022/12/22 14:31:08;;;;;;;28.48;17.65;;;28.60;99.90;;;;;;5050925;28;20024;-75
2022/12/22 14:33:35;;;;;;;25.55;14.10;;;28.60;99.90;;;;;;5052867;28;20466;-73
2022/12/22 14:36:20;;;;;;;24.92;14.18;;;28.60;99.90;;;;;;5052868;28;20104;-73
2022/12/22 14:38:58;;;;;;;21.85;13.30;;;28.60;99.90;;;;;;5051572;28;20032;-74
2022/12/22 14:41:42;;;;;;;23.75;12.52;;;28.60;99.90;;;;;;5049557;28;20063;-74
2022/12/22 14:44:21;;;;;;;22.33;13.32;;;28.60;99.90;;;;;;5050975;28;20028;-75
2022/12/22 14:47:11;;;;;;;23.02;12.20;;;28.60;99.90;;;;;;5050845;28;20032;-74
2022/12/22 14:49:46;;;;;;;19.50;13.10;;;28.60;99.90;;;;;;5043273;28;20037;-74
2022/12/22 14:52:25;;;;;;;30.48;13.60;;;28.60;99.90;;;;;;5052418;28;20021;-73
2022/12/22 14:54:53;;;;;;;26.65;13.90;;;28.50;99.90;;;;;;5050392;28;20024;-73
2022/12/22 14:57:37;;;;;;;37.75;14.95;;;28.50;99.90;;;;;;5049834;28;20024;-74
2022/12/22 15:00:03;;;;;;;43.45;16.52;;;28.60;99.90;;;;;;5048419;28;20090;-73
2022/12/22 15:02:36;;;;;;;40.88;18.67;;;28.50;99.90;;;;;;5053955;28;20396;-74
2022/12/22 15:05:36;;;;;;;35.17;17.67;;;28.50;99.90;;;;;;5050622;28;20028;-74
2022/12/22 15:08:04;;;;;;;27.95;14.75;;;28.50;99.90;;;;;;5050427;28;20496;-73
2022/12/22 15:10:43;;;;;;;32.25;14.98;;;28.50;99.90;;;;;;5051472;28;20021;-74
2022/12/22 15:13:22;;;;;;;36.70;17.25;;;28.40;99.90;;;;;;5050159;28;20021;-74
2022/12/22 15:15:51;;;;;;;40.03;18.35;;;28.40;99.90;;;;;;5051570;28;20020;-73
2022/12/22 15:18:24;;;;;;;39.63;20.65;;;28.40;99.90;;;;;;5051997;28;20056;-73
2022/12/22 15:20:51;;;;;;;46.97;23.05;;;28.50;99.90;;;;;;5054616;28;20017;-74
2022/12/22 15:23:18;;;;;;;43.42;21.60;;;28.40;99.90;;;;;;5058354;28;20484;-74
2022/12/22 15:25:45;;;;;;;41.17;21.90;;;28.40;99.90;;;;;;5059241;28;20051;-74
2022/12/22 15:28:11;;;;;;;46.88;21.90;;;28.30;99.90;;;;;;5034023;28;20025;-75
2022/12/22 15:30:38;;;;;;;30.10;16.30;;;28.40;99.90;;;;;;5055553;28;20477;-75
2022/12/22 15:33:13;;;;;;;27.40;15.55;;;28.30;99.90;;;;;;5054960;28;20025;-75
2022/12/22 15:35:40;;;;;;;28.60;16.30;;;28.30;99.90;;;;;;5055112;28;20009;-75
2022/12/22 15:38:13;;;;;;;26.20;13.57;;;28.20;99.90;;;;;;5055141;28;20021;-75
2022/12/22 15:40:40;;;;;;;21.27;12.48;;;28.20;99.90;;;;;;5055046;28;20017;-74
2022/12/22 15:43:06;;;;;;;19.75;13.27;;;28.30;99.90;;;;;;5055725;28;20191;-72
2022/12/22 15:45:35;;;;;;;26.02;12.85;;;28.20;99.90;;;;;;5055643;28;20513;-74
2022/12/22 15:48:02;;;;;;;22.50;13.27;;;28.20;99.90;;;;;;5055360;28;20048;-74
2022/12/22 15:50:33;;;;;;;22.60;12.68;;;28.20;99.90;;;;;;5054996;28;20021;-75
2022/12/22 15:53:00;;;;;;;24.05;14.63;;;28.20;99.90;;;;;;5055401;28;20025;-75
2022/12/22 15:55:27;;;;;;;38.75;15.13;;;28.10;99.90;;;;;;5055442;28;20055;-72
2022/12/22 15:57:57;;;;;;;31.55;16.73;;;28.10;99.90;;;;;;5055022;28;20066;-75
2022/12/22 16:00:24;;;;;;;38.55;18.00;;;28.10;99.90;;;;;;5053876;28;20032;-76
2022/12/22 16:02:50;;;;;;;28.88;17.02;;;28.10;99.90;;;;;;5051994;28;20017;-75
2022/12/22 16:05:17;;;;;;;28.55;15.25;;;28.00;99.90;;;;;;5055427;28;20430;-75
2022/12/22 16:07:44;;;;;;;24.17;15.50;;;28.00;99.90;;;;;;5055637;28;20029;-74
2022/12/22 16:10:37;;;;;;;29.27;15.95;;;28.10;99.90;;;;;;5055360;28;20029;-75
2022/12/22 16:13:04;;;;;;;26.15;16.65;;;28.10;99.90;;;;;;5052916;28;20037;-74
2022/12/22 16:15:33;;;;;;;30.80;18.55;;;28.00;99.90;;;;;;5055880;28;20048;-74
2022/12/22 16:18:00;;;;;;;26.73;16.67;;;28.00;99.90;;;;;;5055723;28;20016;-72
2022/12/22 16:20:31;;;;;;;31.15;16.52;;;28.00;99.90;;;;;;5053522;28;20472;-72
2022/12/22 16:22:58;;;;;;;24.33;15.70;;;28.00;99.90;;;;;;5035477;28;20489;-72
2022/12/22 16:25:33;;;;;;;27.02;16.40;;;28.00;99.90;;;;;;5035553;28;20370;-73
2022/12/22 16:28:00;;;;;;;23.90;15.30;;;27.90;99.90;;;;;;5035352;28;20421;-73
2022/12/22 16:30:30;;;;;;;24.63;15.07;;;28.00;99.90;;;;;;5035388;28;20471;-75
2022/12/22 16:32:56;;;;;;;27.98;16.58;;;27.90;99.90;;;;;;5034815;28;20393;-77
2022/12/22 16:35:26;;;;;;;28.77;15.98;;;28.00;99.90;;;;;;5035443;28;20022;-75